createdAt,value
2017-05-29T06:53:33.838Z,905
2017-05-29T06:54:34.496Z,2185
2017-05-29T06:55:35.158Z,970
2017-05-29T06:56:35.817Z,1425
2017-05-29T06:57:36.494Z,1945
2017-05-29T06:58:37.157Z,2610
2017-05-29T06:59:37.819Z,2235
2017-05-29T07:00:38.504Z,1105
2017-05-29T07:01:39.167Z,2330
2017-05-29T07:02:39.836Z,1400
2017-05-29T07:03:40.509Z,1845
2017-05-29T07:04:41.198Z,700
2017-05-29T07:05:41.959Z,640
2017-05-29T07:06:42.678Z,1820
2017-05-29T07:07:43.359Z,1340
2017-05-29T07:08:44.029Z,1255
2017-05-29T07:09:44.699Z,2180
2017-05-29T07:10:45.375Z,2105
2017-05-29T07:11:49.926Z,2310
2017-05-29T07:12:51.469Z,1055
2017-05-29T07:13:53.918Z,1100
2017-05-29T07:14:56.496Z,1110
2017-05-29T07:15:59.174Z,1035
2017-05-29T07:17:01.741Z,1135
2017-05-29T07:18:04.080Z,1305
2017-05-29T07:19:06.489Z,1260
2017-05-29T07:20:07.513Z,1135
2017-05-29T07:21:08.234Z,895
2017-05-29T07:22:09.063Z,820
2017-05-29T07:23:10.055Z,1005
2017-05-29T07:24:11.446Z,1105
2017-05-29T07:25:12.158Z,1035
2017-05-29T07:26:12.848Z,820
2017-05-29T07:27:13.524Z,690
2017-05-29T07:28:14.203Z,1055
2017-05-29T07:29:14.885Z,920
2017-05-29T07:30:15.550Z,1050
2017-05-29T07:31:16.228Z,770
2017-05-29T07:32:16.893Z,810
2017-05-29T07:33:17.570Z,935
2017-05-29T07:34:18.249Z,1905
2017-05-29T07:35:18.967Z,1130
2017-05-29T07:36:19.649Z,2520
2017-05-29T07:37:20.342Z,2905
2017-05-29T07:38:21.022Z,2890
2017-05-29T07:39:21.692Z,2930
2017-05-29T07:40:22.382Z,3010
2017-05-29T07:41:23.061Z,3175
2017-05-29T07:42:23.742Z,3305
2017-05-29T07:43:24.415Z,3325
2017-05-29T07:44:25.094Z,1380
2017-05-29T07:45:25.804Z,1665
2017-05-29T07:46:26.480Z,3015
2017-05-29T07:47:27.162Z,2940
2017-05-29T07:48:27.847Z,3390
2017-05-29T07:49:28.526Z,3240
2017-05-29T07:50:29.220Z,1005
2017-05-29T07:51:29.887Z,880
2017-05-29T07:52:30.563Z,925
2017-05-29T07:53:31.236Z,935
2017-05-29T07:54:31.922Z,1355
2017-05-29T07:55:32.597Z,1295
2017-05-29T07:56:33.267Z,1385
2017-05-29T07:57:33.976Z,1330
2017-05-29T07:58:34.654Z,1300
2017-05-29T07:59:35.324Z,1310
2017-05-29T08:00:36.036Z,1090
2017-05-29T08:01:36.736Z,1110
2017-05-29T08:02:37.402Z,1100
2017-05-29T08:03:38.084Z,1110
2017-05-29T08:04:38.762Z,1165
2017-05-29T08:05:39.437Z,1255
2017-05-29T08:06:40.132Z,1300
2017-05-29T08:07:40.877Z,1480
2017-05-29T08:08:41.558Z,1120
2017-05-29T08:09:42.255Z,1220
2017-05-29T08:10:42.929Z,1105
2017-05-29T08:11:43.604Z,1195
2017-05-29T08:12:44.280Z,1775
2017-05-29T08:13:44.973Z,1600
2017-05-29T08:14:45.650Z,2035
2017-05-29T08:15:46.324Z,1110
2017-05-29T08:16:46.992Z,1295
2017-05-29T08:17:47.661Z,1145
2017-05-29T08:18:48.360Z,1255
2017-05-29T08:19:49.046Z,1010
2017-05-29T08:20:49.731Z,1120
2017-05-29T08:21:50.406Z,1665
2017-05-29T08:22:51.104Z,1685
2017-05-29T08:23:51.794Z,1300
2017-05-29T08:24:52.476Z,1430
2017-05-29T08:25:53.151Z,995
2017-05-29T08:26:53.810Z,1945
2017-05-29T08:27:54.492Z,1775
2017-05-29T08:28:55.195Z,1540
2017-05-29T08:29:55.885Z,1595
2017-05-29T08:30:56.557Z,1370
2017-05-29T08:31:57.240Z,2590
2017-05-29T08:32:57.935Z,2600
2017-05-29T08:33:58.623Z,2555
2017-05-29T08:34:59.307Z,2515
2017-05-29T08:36:00.002Z,2630
2017-05-29T08:37:00.685Z,2090
2017-05-29T08:38:01.397Z,1935
2017-05-29T08:39:02.078Z,2700
2017-05-29T08:40:02.756Z,2840
2017-05-29T08:41:03.678Z,2735
2017-05-29T08:42:04.402Z,1880
2017-05-29T08:43:05.116Z,2615
2017-05-29T08:44:05.953Z,2600
2017-05-29T08:45:06.627Z,2655
2017-05-29T08:46:07.308Z,1600
2017-05-29T08:47:08.002Z,1755
2017-05-29T08:48:08.676Z,2620
2017-05-29T08:49:09.339Z,2680
2017-05-29T08:50:10.043Z,2595
2017-05-29T08:51:10.707Z,2710
2017-05-29T08:52:11.494Z,2765
2017-05-29T08:53:12.168Z,2790
2017-05-29T08:54:12.840Z,2660
2017-05-29T08:55:13.566Z,2750
2017-05-29T08:56:14.236Z,2815
2017-05-29T08:57:14.902Z,2675
2017-05-29T08:58:15.622Z,2470
2017-05-29T08:59:16.293Z,2580
2017-05-29T09:00:17.083Z,2755
2017-05-29T09:01:17.833Z,2735
2017-05-29T09:02:18.545Z,2715
2017-05-29T09:03:19.238Z,2020
2017-05-29T09:04:19.913Z,2340
2017-05-29T09:05:20.598Z,2665
2017-05-29T09:06:21.272Z,2610
2017-05-29T09:07:22.044Z,2590
2017-05-29T09:08:22.722Z,2545
2017-05-29T09:09:23.399Z,2530
2017-05-29T09:10:24.064Z,2190
2017-05-29T09:11:24.755Z,2665
2017-05-29T09:12:25.568Z,2725
2017-05-29T09:15:00.923Z,2710
2017-05-29T09:16:01.665Z,2750
2017-05-29T09:17:02.438Z,2305
2017-05-29T09:18:03.179Z,2735
2017-05-29T09:19:03.853Z,2710
2017-05-29T09:20:04.702Z,2785
2017-05-29T09:21:05.406Z,2910
2017-05-29T09:22:06.086Z,2720
2017-05-29T09:23:06.772Z,2895
2017-05-29T09:24:07.466Z,3000
2017-05-29T09:25:08.144Z,3145
2017-05-29T09:26:08.853Z,3070
2017-05-29T09:27:09.557Z,2955
2017-05-29T09:28:10.307Z,2880
2017-05-29T09:29:11.135Z,2880
2017-05-29T09:30:12.203Z,2790
2017-05-29T09:31:12.900Z,2655
2017-05-29T09:32:13.575Z,2770
2017-05-29T09:33:14.266Z,2765
2017-05-29T09:34:14.952Z,2740
2017-05-29T09:35:15.629Z,2770
2017-05-29T09:36:16.351Z,2850
2017-05-29T09:37:17.028Z,2725
2017-05-29T09:38:17.699Z,2830
2017-05-29T09:39:18.401Z,2905
2017-05-29T09:40:19.094Z,2810
2017-05-29T09:41:19.813Z,2370
2017-05-29T09:42:20.514Z,2280
2017-05-29T09:43:21.183Z,2830
2017-05-29T09:44:21.903Z,2715
2017-05-29T09:45:22.596Z,2725
2017-05-29T09:46:23.295Z,2745
2017-05-29T09:47:23.980Z,2825
2017-05-29T09:48:24.675Z,2920
2017-05-29T09:49:25.401Z,2855
2017-05-29T09:50:26.112Z,2705
2017-05-29T09:51:26.812Z,1460
2017-05-29T09:52:27.527Z,740
2017-05-29T09:53:28.205Z,650
2017-05-29T09:54:28.884Z,615
2017-05-29T09:55:29.618Z,575
2017-05-29T09:56:30.326Z,565
2017-05-29T09:57:31.006Z,580
2017-05-29T09:58:31.687Z,575
2017-05-29T09:59:32.502Z,565
2017-05-29T10:00:33.604Z,565
2017-05-29T10:01:34.568Z,550
2017-05-29T10:02:35.409Z,545
2017-05-29T10:03:36.121Z,535
2017-05-29T10:04:36.846Z,530
2017-05-29T10:05:37.521Z,580
2017-05-29T10:06:38.508Z,615
2017-05-29T10:07:39.265Z,590
2017-05-29T10:08:39.973Z,565
2017-05-29T10:09:40.869Z,540
2017-05-29T10:10:41.686Z,530
2017-05-29T10:11:42.397Z,520
2017-05-29T10:12:43.102Z,495
2017-05-29T10:13:43.790Z,495
2017-05-29T10:14:44.487Z,490
2017-05-29T10:15:45.209Z,485
2017-05-29T10:16:45.936Z,485
2017-05-29T10:17:46.591Z,485
2017-05-29T10:18:47.307Z,475
2017-05-29T10:19:47.969Z,470
2017-05-29T10:20:48.678Z,460
2017-05-29T10:21:49.344Z,450
2017-05-29T10:22:50.051Z,450
2017-05-29T10:23:50.747Z,440
2017-05-29T10:24:51.652Z,430
2017-05-29T10:25:52.353Z,430
2017-05-29T10:26:53.048Z,430
2017-05-29T10:27:53.834Z,435
2017-05-29T10:28:54.508Z,440
2017-05-29T10:29:55.203Z,445
2017-05-29T10:30:55.881Z,450
2017-05-29T10:31:56.555Z,450
2017-05-29T10:32:57.266Z,445
2017-05-29T10:33:57.935Z,450
2017-05-29T10:34:58.650Z,445
2017-05-29T10:35:59.334Z,445
2017-05-29T10:37:00.006Z,435
2017-05-29T10:38:00.693Z,425
2017-05-29T10:39:01.417Z,420
2017-05-29T10:40:02.098Z,415
2017-05-29T10:41:02.810Z,410
2017-05-29T10:42:03.467Z,400
2017-05-29T10:43:04.137Z,390
2017-05-29T10:44:04.817Z,380
2017-05-29T10:45:05.491Z,370
2017-05-29T10:46:06.204Z,360
2017-05-29T10:47:06.875Z,360
2017-05-29T10:48:07.557Z,375
2017-05-29T10:49:08.228Z,410
2017-05-29T10:50:08.896Z,495
2017-05-29T10:51:09.598Z,540
2017-05-29T10:52:10.287Z,585
2017-05-29T10:53:10.960Z,655
2017-05-29T10:54:11.634Z,655
2017-05-29T10:55:12.305Z,665
2017-05-29T10:56:12.977Z,620
2017-05-29T10:57:13.658Z,620
2017-05-29T10:58:14.325Z,600
2017-05-29T10:59:14.999Z,535
2017-05-29T11:00:15.679Z,560
2017-05-29T11:01:16.357Z,615
2017-05-29T11:02:17.030Z,670
2017-05-29T11:03:17.684Z,685
2017-05-29T11:04:18.375Z,690
2017-05-29T11:05:19.068Z,675
2017-05-29T11:06:19.754Z,665
2017-05-29T11:07:20.418Z,700
2017-05-29T11:08:21.109Z,725
2017-05-29T11:09:21.781Z,715
2017-05-29T11:10:22.500Z,720
2017-05-29T11:11:23.173Z,675
2017-05-29T11:12:23.841Z,665
2017-05-29T11:13:24.520Z,655
2017-05-29T11:14:25.187Z,675
2017-05-29T11:15:25.874Z,690
2017-05-29T11:16:26.551Z,655
2017-05-29T11:17:27.250Z,635
2017-05-29T11:18:27.934Z,600
2017-05-29T11:19:28.626Z,570
2017-05-29T11:20:29.313Z,565
2017-05-29T11:21:30.000Z,570
2017-05-29T11:22:30.680Z,585
2017-05-29T11:23:31.361Z,605
2017-05-29T11:24:32.074Z,625
2017-05-29T11:25:32.759Z,645
2017-05-29T11:26:33.449Z,655
2017-05-29T11:27:34.122Z,655
2017-05-29T11:28:34.791Z,645
2017-05-29T11:29:35.518Z,650
2017-05-29T11:30:36.213Z,650
2017-05-29T11:31:36.884Z,635
2017-05-29T11:32:37.554Z,630
2017-05-29T11:33:38.262Z,625
2017-05-29T11:34:38.944Z,605
2017-05-29T11:35:39.647Z,625
2017-05-29T11:36:40.320Z,640
2017-05-29T11:37:40.998Z,645
2017-05-29T11:38:41.680Z,665
2017-05-29T11:39:42.344Z,665
2017-05-29T11:40:43.036Z,685
2017-05-29T11:41:43.726Z,690
2017-05-29T11:42:44.433Z,695
2017-05-29T11:43:45.126Z,710
2017-05-29T11:44:45.796Z,735
2017-05-29T11:45:46.466Z,735
2017-05-29T11:46:47.132Z,735
2017-05-29T11:47:47.819Z,730
2017-05-29T11:48:48.485Z,745
2017-05-29T11:49:49.195Z,740
2017-05-29T11:50:49.866Z,725
2017-05-29T11:51:50.554Z,735
2017-05-29T11:52:51.224Z,705
2017-05-29T11:53:51.899Z,690
2017-05-29T11:54:52.593Z,680
2017-05-29T11:55:53.293Z,640
2017-05-29T11:56:53.964Z,645
2017-05-29T11:57:54.638Z,595
2017-05-29T11:58:55.317Z,575
2017-05-29T11:59:55.985Z,535
2017-05-29T12:00:56.671Z,525
2017-05-29T12:01:57.368Z,520
2017-05-29T12:02:58.043Z,525
2017-05-29T12:03:58.719Z,530
2017-05-29T12:04:59.405Z,525
2017-05-29T12:06:00.078Z,530
2017-05-29T12:07:00.775Z,550
2017-05-29T12:08:01.476Z,535
2017-05-29T12:09:02.147Z,545
2017-05-29T12:10:02.855Z,520
2017-05-29T12:11:03.563Z,490
2017-05-29T12:12:04.231Z,470
2017-05-29T12:13:04.897Z,455
2017-05-29T12:14:05.562Z,445
2017-05-29T12:15:06.239Z,440
2017-05-29T12:16:06.977Z,440
2017-05-29T12:17:07.684Z,445
2017-05-29T12:18:08.417Z,450
2017-05-29T12:19:09.094Z,435
2017-05-29T12:20:09.764Z,420
2017-05-29T12:21:10.438Z,405
2017-05-29T12:22:11.139Z,400
2017-05-29T12:23:11.835Z,395
2017-05-29T12:24:12.517Z,405
2017-05-29T12:25:13.187Z,400
2017-05-29T12:26:13.851Z,375
2017-05-29T12:27:14.529Z,350
2017-05-29T12:28:15.200Z,320
2017-05-29T12:29:15.875Z,295
2017-05-29T12:30:16.544Z,285
2017-05-29T12:31:17.216Z,280
2017-05-29T12:32:17.903Z,275
2017-05-29T12:33:18.590Z,270
2017-05-29T12:34:19.255Z,280
2017-05-29T12:35:19.934Z,285
2017-05-29T12:36:20.603Z,280
2017-05-29T12:37:21.323Z,285
2017-05-29T12:38:21.989Z,300
2017-05-29T12:39:22.683Z,305
2017-05-29T12:40:23.343Z,310
2017-05-29T12:41:24.016Z,315
2017-05-29T12:42:24.692Z,305
2017-05-29T12:43:25.356Z,290
2017-05-29T12:44:26.064Z,280
2017-05-29T12:45:26.743Z,275
2017-05-29T12:46:27.409Z,270
2017-05-29T12:47:28.081Z,270
2017-05-29T12:48:28.775Z,260
2017-05-29T12:49:29.449Z,250
2017-05-29T12:50:30.120Z,255
2017-05-29T12:51:30.790Z,255
2017-05-29T12:52:31.477Z,255
2017-05-29T12:53:32.159Z,245
2017-05-29T12:54:33.018Z,240
2017-05-29T12:55:33.692Z,230
2017-05-29T12:56:34.362Z,220
2017-05-29T12:57:35.044Z,215
2017-05-29T12:58:35.712Z,220
2017-05-29T12:59:36.388Z,220
2017-05-29T13:00:37.058Z,220
2017-05-29T13:01:37.734Z,225
2017-05-29T13:02:38.400Z,210
2017-05-29T13:03:39.075Z,210
2017-05-29T13:04:39.785Z,210
2017-05-29T13:05:40.578Z,210
2017-05-29T13:06:41.246Z,215
2017-05-29T13:07:41.919Z,215
2017-05-29T13:08:42.601Z,215
2017-05-29T13:09:43.274Z,210
2017-05-29T13:10:43.941Z,205
2017-05-29T13:11:44.613Z,200
2017-05-29T13:12:45.282Z,195
2017-05-29T13:13:45.968Z,190
2017-05-29T13:14:46.677Z,190
2017-05-29T13:15:47.378Z,185
2017-05-29T13:16:48.088Z,185
2017-05-29T13:17:48.779Z,185
2017-05-29T13:18:49.521Z,180
2017-05-29T13:19:50.193Z,180
2017-05-29T13:20:50.923Z,180
2017-05-29T13:21:51.595Z,180
2017-05-29T13:22:52.278Z,180
2017-05-29T13:23:52.963Z,175
2017-05-29T13:24:53.641Z,175
2017-05-29T13:25:54.317Z,175
2017-05-29T13:26:55.015Z,175
2017-05-29T13:27:55.695Z,175
2017-05-29T13:28:56.398Z,175
2017-05-29T13:29:57.076Z,175
2017-05-29T13:30:57.794Z,175
2017-05-29T13:31:58.470Z,170
2017-05-29T13:32:59.144Z,170
2017-05-29T13:33:59.818Z,170
2017-05-29T13:35:00.481Z,170
2017-05-29T13:36:01.173Z,170
2017-05-29T13:37:01.844Z,170
2017-05-29T13:38:02.566Z,170
2017-05-29T13:39:03.252Z,170
2017-05-29T13:40:03.933Z,170
2017-05-29T13:41:04.636Z,170
2017-05-29T13:42:05.296Z,170
2017-05-29T13:43:05.990Z,165
2017-05-29T13:44:06.662Z,165
2017-05-29T13:45:07.423Z,165
2017-05-29T13:46:08.125Z,165
2017-05-29T13:47:08.818Z,165
2017-05-29T13:48:09.494Z,165
2017-05-29T13:49:10.165Z,165
2017-05-29T13:50:10.836Z,165
2017-05-29T13:51:11.522Z,160
2017-05-29T13:52:12.200Z,160
2017-05-29T13:53:12.862Z,160
2017-05-29T13:54:13.535Z,160
2017-05-29T13:55:14.217Z,160
2017-05-29T13:56:14.889Z,160
2017-05-29T13:57:15.558Z,160
2017-05-29T13:58:16.224Z,160
2017-05-29T13:59:16.900Z,160
2017-05-29T14:00:17.723Z,160
2017-05-29T14:01:18.395Z,160
2017-05-29T14:02:19.061Z,160
2017-05-29T14:03:19.751Z,160
2017-05-29T14:04:20.415Z,160
2017-05-29T14:05:21.089Z,160
2017-05-29T14:06:21.812Z,160
2017-05-29T14:07:22.477Z,160
2017-05-29T14:08:23.158Z,160
2017-05-29T14:09:23.835Z,160
2017-05-29T14:10:24.496Z,160
2017-05-29T14:11:25.187Z,160
2017-05-29T14:12:25.957Z,160
2017-05-29T14:13:26.593Z,160
2017-05-29T14:14:27.273Z,160
2017-05-29T14:15:27.960Z,160
2017-05-29T14:16:28.636Z,155
2017-05-29T14:17:29.312Z,155
2017-05-29T14:18:29.988Z,155
2017-05-29T14:19:30.663Z,155
2017-05-29T14:20:31.347Z,155
2017-05-29T14:21:32.018Z,155
2017-05-29T14:22:32.693Z,155
2017-05-29T14:23:33.414Z,155
2017-05-29T14:24:34.120Z,155
2017-05-29T14:25:34.794Z,155
2017-05-29T14:26:35.479Z,155
2017-05-29T14:27:36.150Z,155
2017-05-29T14:28:36.824Z,155
2017-05-29T14:29:37.513Z,155
2017-05-29T14:30:38.182Z,155
2017-05-29T14:31:38.878Z,155
2017-05-29T14:32:39.552Z,155
2017-05-29T14:33:40.233Z,150
2017-05-29T14:34:40.936Z,150
2017-05-29T14:35:41.628Z,150
2017-05-29T14:36:42.323Z,150
2017-05-29T14:37:42.995Z,150
2017-05-29T14:38:43.703Z,150
2017-05-29T14:39:44.372Z,150
2017-05-29T14:40:45.054Z,150
2017-05-29T14:41:45.756Z,150
2017-05-29T14:42:46.438Z,150
2017-05-29T14:43:47.102Z,150
2017-05-29T14:44:47.791Z,150
2017-05-29T14:45:48.473Z,150
2017-05-29T14:46:49.163Z,150
2017-05-29T14:47:49.844Z,150
2017-05-29T14:48:50.580Z,150
2017-05-29T14:49:51.300Z,150
2017-05-29T14:50:52.038Z,150
2017-05-29T14:51:52.759Z,150
2017-05-29T14:52:53.435Z,150
2017-05-29T14:53:54.117Z,150
2017-05-29T14:54:54.784Z,150
2017-05-29T14:55:55.460Z,150
2017-05-29T14:56:56.147Z,150
2017-05-29T14:57:56.831Z,155
2017-05-29T14:58:57.504Z,155
2017-05-29T14:59:58.178Z,165
2017-05-29T15:00:58.857Z,165
2017-05-29T15:01:59.530Z,160
2017-05-29T15:03:00.208Z,155
2017-05-29T15:04:00.901Z,155
2017-05-29T15:05:01.600Z,150
2017-05-29T15:06:02.294Z,150
2017-05-29T15:07:02.963Z,155
2017-05-29T15:08:03.640Z,175
2017-05-29T15:09:04.329Z,175
2017-05-29T15:10:05.009Z,175
2017-05-29T15:11:05.677Z,180
2017-05-29T15:12:06.347Z,180
2017-05-29T15:13:07.038Z,195
2017-05-29T15:14:07.746Z,195
2017-05-29T15:15:08.421Z,205
2017-05-29T15:16:09.156Z,220
2017-05-29T15:17:09.828Z,230
2017-05-29T15:18:10.513Z,240
2017-05-29T15:19:11.190Z,240
2017-05-29T15:20:11.909Z,240
2017-05-29T15:21:12.611Z,230
2017-05-29T15:22:13.317Z,225
2017-05-29T15:23:13.987Z,205
2017-05-29T15:24:14.783Z,200
2017-05-29T15:25:15.455Z,195
2017-05-29T15:26:16.152Z,185
2017-05-29T15:27:16.985Z,175
2017-05-29T15:28:17.657Z,185
2017-05-29T15:29:18.350Z,200
2017-05-29T15:30:19.028Z,215
2017-05-29T15:31:20.081Z,220
2017-05-29T15:32:20.769Z,225
2017-05-29T15:33:21.461Z,225
2017-05-29T15:34:22.128Z,220
2017-05-29T15:35:22.874Z,220
2017-05-29T15:36:23.555Z,205
2017-05-29T15:37:24.241Z,175
2017-05-29T15:38:24.965Z,165
2017-05-29T15:39:25.632Z,165
2017-05-29T15:40:26.322Z,165
2017-05-29T15:41:27.038Z,160
2017-05-29T15:42:27.783Z,160
2017-05-29T15:43:29.127Z,155
2017-05-29T15:44:29.798Z,155
2017-05-29T15:45:30.474Z,155
2017-05-29T15:46:31.170Z,155
2017-05-29T15:47:31.854Z,150
2017-05-29T15:48:32.877Z,155
2017-05-29T15:49:33.647Z,155
2017-05-29T15:50:34.324Z,155
2017-05-29T15:51:34.996Z,155
2017-05-29T15:52:35.667Z,160
2017-05-29T15:53:36.362Z,160
2017-05-29T15:54:37.027Z,160
2017-05-29T15:55:37.693Z,165
2017-05-29T15:56:38.361Z,165
2017-05-29T15:57:39.041Z,165
2017-05-29T15:58:39.712Z,165
2017-05-29T15:59:40.389Z,165
2017-05-29T16:00:41.075Z,170
2017-05-29T16:01:41.751Z,170
2017-05-29T16:02:42.442Z,170
2017-05-29T16:03:43.129Z,175
2017-05-29T16:04:43.807Z,175
2017-05-29T16:05:44.482Z,175
2017-05-29T16:06:45.190Z,175
2017-05-29T16:07:45.867Z,175
2017-05-29T16:08:46.572Z,180
2017-05-29T16:09:47.270Z,180
2017-05-29T16:10:47.925Z,180
2017-05-29T16:11:48.601Z,185
2017-05-29T16:12:49.329Z,185
2017-05-29T16:13:51.298Z,185
2017-05-29T16:14:51.979Z,185
2017-05-29T16:15:52.677Z,185
2017-05-29T16:16:53.348Z,185
2017-05-29T16:17:54.030Z,180
2017-05-29T16:18:54.709Z,180
2017-05-29T16:19:55.419Z,180
2017-05-29T16:20:56.086Z,180
2017-05-29T16:21:56.769Z,180
2017-05-29T16:22:57.440Z,180
2017-05-29T16:23:58.134Z,180
2017-05-29T16:24:58.809Z,175
2017-05-29T16:25:59.477Z,170
2017-05-29T16:27:00.183Z,165
2017-05-29T16:28:00.852Z,160
2017-05-29T16:29:01.540Z,165
2017-05-29T16:30:02.232Z,165
2017-05-29T16:31:02.926Z,165
2017-05-29T16:32:03.649Z,160
2017-05-29T16:33:04.330Z,155
2017-05-29T16:34:05.070Z,150
2017-05-29T16:35:05.742Z,150
2017-05-29T16:36:06.515Z,145
2017-05-29T16:37:07.202Z,145
2017-05-29T16:38:07.890Z,140
2017-05-29T16:39:08.565Z,140
2017-05-29T16:40:09.254Z,140
2017-05-29T16:41:09.931Z,140
2017-05-29T16:42:10.857Z,140
2017-05-29T16:43:11.530Z,140
2017-05-29T16:44:12.215Z,140
2017-05-29T16:45:12.888Z,140
2017-05-29T16:46:13.566Z,135
2017-05-29T16:47:14.284Z,135
2017-05-29T16:48:14.963Z,135
2017-05-29T16:49:15.654Z,135
2017-05-29T16:50:16.330Z,135
2017-05-29T16:51:17.087Z,130
2017-05-29T16:52:17.843Z,130
2017-05-29T16:53:18.511Z,125
2017-05-29T16:54:19.203Z,125
2017-05-29T16:55:19.886Z,125
2017-05-29T16:56:20.550Z,125
2017-05-29T16:57:21.223Z,125
2017-05-29T16:58:21.911Z,125
2017-05-29T16:59:22.579Z,120
2017-05-29T17:00:23.259Z,120
2017-05-29T17:01:23.965Z,120
2017-05-29T17:02:24.668Z,120
2017-05-29T17:03:25.344Z,125
2017-05-29T17:04:26.021Z,125
2017-05-29T17:05:26.689Z,120
2017-05-29T17:06:27.378Z,125
2017-05-29T17:07:28.064Z,120
2017-05-29T17:08:28.737Z,120
2017-05-29T17:09:29.426Z,120
2017-05-29T17:10:30.090Z,120
2017-05-29T17:11:30.774Z,120
2017-05-29T17:12:31.435Z,120
2017-05-29T17:13:32.120Z,120
2017-05-29T17:14:32.781Z,120
2017-05-29T17:15:33.463Z,120
2017-05-29T17:16:34.145Z,120
2017-05-29T17:17:34.828Z,120
2017-05-29T17:18:35.536Z,120
2017-05-29T17:19:36.216Z,120
2017-05-29T17:20:36.899Z,120
2017-05-29T17:21:37.563Z,120
2017-05-29T17:22:38.255Z,120
2017-05-29T17:23:38.980Z,115
2017-05-29T17:24:39.654Z,115
2017-05-29T17:25:40.331Z,110
2017-05-29T17:26:40.998Z,110
2017-05-29T17:27:41.669Z,110
2017-05-29T17:28:42.343Z,110
2017-05-29T17:29:43.025Z,110
2017-05-29T17:30:43.738Z,110
2017-05-29T17:31:44.388Z,105
2017-05-29T17:32:45.116Z,105
2017-05-29T17:33:45.807Z,100
2017-05-29T17:34:46.473Z,100
2017-05-29T17:35:47.140Z,100
2017-05-29T17:36:47.824Z,100
2017-05-29T17:37:48.506Z,100
2017-05-29T17:38:49.185Z,100
2017-05-29T17:39:49.871Z,100
2017-05-29T17:40:50.538Z,100
2017-05-29T17:41:51.232Z,100
2017-05-29T17:42:51.899Z,100
2017-05-29T17:43:52.592Z,100
2017-05-29T17:44:53.285Z,100
2017-05-29T17:45:53.968Z,100
2017-05-29T17:46:54.658Z,105
2017-05-29T17:47:55.345Z,110
2017-05-29T17:48:56.016Z,110
2017-05-29T17:49:56.689Z,115
2017-05-29T17:50:57.366Z,115
2017-05-29T17:51:58.041Z,115
2017-05-29T17:52:58.728Z,115
2017-05-29T17:53:59.393Z,110
2017-05-29T17:55:00.090Z,110
2017-05-29T17:56:00.783Z,110
2017-05-29T17:57:01.465Z,110
2017-05-29T17:58:02.147Z,105
2017-05-29T17:59:02.826Z,105
2017-05-29T18:00:03.529Z,105
2017-05-29T18:01:04.208Z,105
2017-05-29T18:02:04.864Z,100
2017-05-29T18:03:05.543Z,100
2017-05-29T18:04:06.219Z,100
2017-05-29T18:05:06.902Z,100
2017-05-29T18:06:07.609Z,95
2017-05-29T18:07:08.282Z,95
2017-05-29T18:08:08.958Z,95
2017-05-29T18:09:09.668Z,95
2017-05-29T18:10:10.378Z,90
2017-05-29T18:11:11.067Z,90
2017-05-29T18:12:11.760Z,90
2017-05-29T18:13:12.461Z,85
2017-05-29T18:14:13.228Z,85
2017-05-29T18:15:13.903Z,85
2017-05-29T18:16:14.629Z,80
2017-05-29T18:17:15.889Z,80
2017-05-29T18:18:16.883Z,80
2017-05-29T18:19:17.836Z,75
2017-05-29T18:20:18.708Z,70
2017-05-29T18:21:19.385Z,70
2017-05-29T18:22:20.059Z,65
2017-05-29T18:23:20.729Z,65
2017-05-29T18:24:21.410Z,65
2017-05-29T18:25:22.088Z,60
2017-05-29T18:26:22.773Z,60
2017-05-29T18:27:23.472Z,60
2017-05-29T18:28:24.153Z,55
2017-05-29T18:29:24.823Z,55
2017-05-29T18:30:25.511Z,55
2017-05-29T18:31:26.212Z,50
2017-05-29T18:32:26.881Z,50
2017-05-29T18:33:27.616Z,50
2017-05-29T18:34:28.275Z,50
2017-05-29T18:35:28.953Z,45
2017-05-29T18:36:29.662Z,45
2017-05-29T18:37:30.348Z,45
2017-05-29T18:38:31.019Z,45
2017-05-29T18:39:31.698Z,40
2017-05-29T18:40:32.373Z,40
2017-05-29T18:41:33.049Z,40
2017-05-29T18:42:33.761Z,40
2017-05-29T18:43:34.564Z,35
2017-05-29T18:44:35.337Z,35
2017-05-29T18:45:36.137Z,35
2017-05-29T18:46:36.923Z,35
2017-05-29T18:47:37.694Z,35
2017-05-29T18:48:38.431Z,30
2017-05-29T18:49:39.145Z,30
2017-05-29T18:50:39.848Z,30
2017-05-29T18:51:40.560Z,30
2017-05-29T18:52:41.242Z,30
2017-05-29T18:53:41.916Z,30
2017-05-29T18:54:42.602Z,25
2017-05-29T18:55:43.403Z,25
2017-05-29T18:56:44.107Z,25
2017-05-29T18:57:44.781Z,25
2017-05-29T18:58:45.464Z,25
2017-05-29T18:59:46.421Z,25
2017-05-29T19:00:47.173Z,25
2017-05-29T19:01:47.915Z,20
2017-05-29T19:02:48.699Z,20
2017-05-29T19:03:49.550Z,20
2017-05-29T19:04:50.235Z,20
2017-05-29T19:05:50.920Z,20
2017-05-29T19:06:51.619Z,20
2017-05-29T19:07:52.284Z,20
2017-05-29T19:08:52.961Z,20
2017-05-29T19:09:53.623Z,15
2017-05-29T19:10:54.585Z,15
2017-05-29T19:11:55.430Z,15
2017-05-29T19:12:56.109Z,15
2017-05-29T19:13:56.780Z,15
2017-05-29T19:14:57.480Z,15
2017-05-29T19:15:58.160Z,15
2017-05-29T19:16:59.449Z,15
2017-05-29T19:18:00.123Z,15
2017-05-29T19:19:00.788Z,10
2017-05-29T19:20:01.469Z,10
2017-05-29T19:21:02.246Z,10
2017-05-29T19:22:02.924Z,10
2017-05-29T19:23:03.594Z,10
2017-05-29T19:24:04.342Z,10
2017-05-29T19:25:05.036Z,10
2017-05-29T19:26:05.721Z,10
2017-05-29T19:27:06.405Z,10
2017-05-29T19:28:07.110Z,5
2017-05-29T19:29:07.789Z,5
2017-05-29T19:30:08.461Z,5
2017-05-29T19:31:09.148Z,5
2017-05-29T19:32:10.001Z,5
2017-05-29T19:33:11.002Z,5
2017-05-29T19:34:12.099Z,5
2017-05-29T19:35:12.867Z,5
2017-05-29T19:36:13.959Z,5
2017-05-29T19:37:14.757Z,0
2017-05-29T19:38:15.598Z,0
2017-05-29T19:39:16.372Z,0
2017-05-29T19:40:17.227Z,0
2017-05-29T19:41:17.997Z,0
2017-05-29T19:42:18.801Z,0
2017-05-29T19:43:19.554Z,0
2017-05-29T19:44:20.285Z,0
2017-05-29T19:45:20.975Z,0
2017-05-29T19:46:21.722Z,0
2017-05-29T19:47:22.460Z,0
2017-05-29T19:48:23.199Z,0
2017-05-29T19:49:24.219Z,0
2017-05-29T19:50:25.442Z,0
2017-05-29T19:51:26.286Z,0
2017-05-29T19:52:27.074Z,0
2017-05-29T19:53:27.880Z,0
2017-05-29T19:54:29.165Z,0
2017-05-29T19:55:29.876Z,0
2017-05-29T19:56:30.658Z,0
2017-05-29T19:57:31.995Z,0
2017-05-29T19:58:33.188Z,0
2017-05-29T19:59:34.717Z,0
2017-05-29T20:00:35.395Z,0
2017-05-29T20:01:36.089Z,0
2017-05-29T20:02:36.756Z,0
2017-05-29T20:03:37.465Z,0
2017-05-29T20:04:38.138Z,0
2017-05-29T20:05:39.263Z,0
2017-05-29T20:06:39.994Z,0
2017-05-29T20:07:40.669Z,0
2017-05-29T20:08:41.443Z,0
2017-05-29T20:09:42.133Z,0
2017-05-29T20:10:42.946Z,0
2017-05-29T20:11:43.696Z,0
2017-05-29T20:12:44.377Z,0
2017-05-29T20:13:45.112Z,0
2017-05-29T20:14:45.788Z,0
2017-05-29T20:15:46.495Z,0
2017-05-29T20:16:47.326Z,0
2017-05-29T20:17:48.009Z,0
2017-05-29T20:18:48.809Z,0
2017-05-29T20:19:49.779Z,0
2017-05-29T20:20:50.444Z,0
2017-05-29T20:21:51.398Z,0
2017-05-29T20:22:52.120Z,0
2017-05-29T20:23:52.868Z,0
2017-05-29T20:24:53.619Z,0
2017-05-29T20:25:54.308Z,0
2017-05-29T20:26:54.981Z,0
2017-05-29T20:27:55.658Z,0
2017-05-29T20:28:56.554Z,0
2017-05-29T20:29:57.263Z,0
2017-05-29T20:30:58.198Z,0
2017-05-29T20:31:59.123Z,0
2017-05-29T20:33:00.047Z,0
2017-05-29T20:34:00.875Z,0
2017-05-29T20:35:01.688Z,0
2017-05-29T20:36:02.348Z,0
2017-05-29T20:37:03.037Z,0
2017-05-29T20:38:03.957Z,0
2017-05-29T20:39:04.760Z,0
2017-05-29T20:40:06.286Z,0
2017-05-29T20:41:07.686Z,0
2017-05-29T20:42:08.686Z,0
2017-05-29T20:43:09.617Z,0
2017-05-29T20:44:10.695Z,0
2017-05-29T20:45:11.594Z,0
2017-05-29T20:46:12.408Z,0
2017-05-29T20:47:13.158Z,0
2017-05-29T20:48:14.479Z,0
2017-05-29T20:49:15.374Z,0
2017-05-29T20:50:16.092Z,0
2017-05-29T20:51:17.381Z,0
2017-05-29T20:52:18.162Z,0
2017-05-29T20:53:19.414Z,0
2017-05-29T20:54:20.187Z,0